Time;durP1;ratioP1;P1;durP2;ratioP2;P2;SDS_P1;SDS_P2;PMS_P1;PMS_P2;Temp;Humidity;BMP_temperature;BMP_pressure;BME280_temperature;BME280_humidity;BME280_pressure;Samples;Min_cycle;Max_cycle;Signal;HPM_P1;HPM_P2
2023/11/03 00:00:50;;;;;;;10.18;1.58;;;11.50;99.90;;;;;;5067182;28;20035;-61
2023/11/03 00:03:15;;;;;;;7.63;1.25;;;11.50;99.90;;;;;;5064371;28;20029;-59
2023/11/03 00:05:41;;;;;;;5.97;0.90;;;11.60;99.90;;;;;;5068480;28;20034;-62
2023/11/03 00:08:08;;;;;;;10.77;1.55;;;11.60;99.90;;;;;;5062751;28;20437;-62
2023/11/03 00:10:36;;;;;;;7.85;1.30;;;11.50;99.90;;;;;;5067782;28;20036;-61
2023/11/03 00:13:02;;;;;;;9.98;1.10;;;11.50;99.90;;;;;;5062319;28;20027;-62
2023/11/03 00:15:27;;;;;;;7.65;2.05;;;11.50;99.90;;;;;;5070493;28;20016;-61
2023/11/03 00:17:53;;;;;;;9.13;1.40;;;11.50;99.90;;;;;;5062312;28;20443;-60
2023/11/03 00:20:19;;;;;;;6.05;1.10;;;11.50;99.90;;;;;;5068580;28;20061;-61
2023/11/03 00:22:45;;;;;;;4.82;1.02;;;11.60;99.90;;;;;;5058549;28;20036;-62
2023/11/03 00:25:13;;;;;;;9.00;1.30;;;11.50;99.90;;;;;;5069750;28;20020;-58
2023/11/03 00:27:40;;;;;;;6.97;1.27;;;11.50;99.90;;;;;;5060443;28;20024;-59
2023/11/03 00:30:07;;;;;;;8.30;1.08;;;11.50;99.90;;;;;;5064171;28;20036;-61
2023/11/03 00:32:34;;;;;;;5.03;1.40;;;11.50;99.90;;;;;;5063981;28;20103;-58
2023/11/03 00:34:59;;;;;;;7.93;1.35;;;11.50;99.90;;;;;;5065284;28;20029;-60
2023/11/03 00:37:28;;;;;;;4.93;1.00;;;11.50;99.90;;;;;;5057638;28;20391;-59
2023/11/03 00:39:53;;;;;;;5.70;1.27;;;11.50;99.90;;;;;;5060517;28;20087;-62
2023/11/03 00:42:19;;;;;;;7.50;1.20;;;11.50;99.90;;;;;;5064801;28;20429;-60
2023/11/03 00:44:44;;;;;;;9.80;1.20;;;11.50;99.90;;;;;;5067119;28;20505;-63
2023/11/03 00:47:10;;;;;;;14.93;1.40;;;11.50;99.90;;;;;;5062607;28;20031;-61
2023/11/03 00:49:37;;;;;;;5.45;1.30;;;11.50;99.90;;;;;;5065245;28;20401;-61
2023/11/03 00:52:04;;;;;;;7.72;1.00;;;11.50;99.90;;;;;;5058009;28;20029;-60
2023/11/03 00:54:30;;;;;;;3.95;0.98;;;11.50;99.90;;;;;;5063010;28;20489;-59
2023/11/03 00:56:55;;;;;;;3.45;0.93;;;11.50;99.90;;;;;;5064468;28;20036;-60
2023/11/03 00:59:21;;;;;;;9.07;1.33;;;11.40;99.90;;;;;;5063346;28;20033;-61
2023/11/03 01:01:47;;;;;;;5.70;0.82;;;11.40;99.90;;;;;;5069170;28;20025;-61
2023/11/03 01:04:12;;;;;;;4.63;0.70;;;11.40;99.90;;;;;;5067664;28;20103;-61
2023/11/03 01:06:39;;;;;;;10.35;1.35;;;11.40;99.90;;;;;;5067382;28;20047;-60
2023/11/03 01:09:04;;;;;;;8.98;1.95;;;11.40;99.90;;;;;;5072445;28;20020;-60
2023/11/03 01:11:30;;;;;;;13.25;0.80;;;11.40;99.90;;;;;;5075768;28;20042;-59
2023/11/03 01:13:56;;;;;;;9.10;1.10;;;11.40;99.90;;;;;;5066183;28;20021;-59
2023/11/03 01:16:25;;;;;;;5.80;0.98;;;11.40;99.90;;;;;;5070311;28;20032;-61
2023/11/03 01:18:51;;;;;;;8.40;1.27;;;11.40;99.90;;;;;;5062665;28;20040;-61
2023/11/03 01:21:18;;;;;;;3.05;0.80;;;11.40;99.90;;;;;;5071999;28;20027;-62
2023/11/03 01:23:47;;;;;;;5.03;2.30;;;11.40;99.90;;;;;;5060210;28;20029;-61
2023/11/03 01:26:13;;;;;;;1.17;0.50;;;11.40;99.90;;;;;;5067785;28;20399;-60
2023/11/03 01:28:39;;;;;;;7.78;1.23;;;11.30;99.90;;;;;;5061279;28;20025;-61
2023/11/03 01:31:07;;;;;;;5.88;1.05;;;11.30;99.90;;;;;;5066680;28;20043;-62
2023/11/03 01:33:33;;;;;;;5.90;0.88;;;11.30;99.90;;;;;;5063717;28;20024;-59
2023/11/03 01:35:58;;;;;;;4.50;1.00;;;11.30;99.90;;;;;;5067261;28;20020;-61
2023/11/03 01:38:24;;;;;;;4.40;0.80;;;11.30;99.90;;;;;;5059965;28;20037;-59
2023/11/03 01:40:50;;;;;;;3.08;0.65;;;11.20;99.90;;;;;;5070277;28;20025;-60
2023/11/03 01:43:16;;;;;;;3.38;0.77;;;11.20;99.90;;;;;;5067369;28;20391;-61
2023/11/03 01:45:41;;;;;;;4.45;1.05;;;11.20;99.90;;;;;;5064848;28;20032;-61
2023/11/03 01:48:07;;;;;;;2.25;0.75;;;11.20;99.90;;;;;;5069392;28;20028;-62
2023/11/03 01:50:35;;;;;;;4.22;0.82;;;11.20;99.90;;;;;;5065235;28;20112;-61
2023/11/03 01:53:02;;;;;;;4.40;0.70;;;11.20;99.90;;;;;;5065911;28;20024;-61
2023/11/03 01:55:28;;;;;;;4.68;0.90;;;11.20;99.90;;;;;;5067117;28;20560;-61
2023/11/03 01:57:55;;;;;;;4.05;0.85;;;11.10;99.90;;;;;;5061252;28;20517;-62
2023/11/03 02:00:22;;;;;;;1.35;0.70;;;11.10;99.90;;;;;;5063829;28;20079;-61
2023/11/03 02:02:49;;;;;;;7.82;0.70;;;11.10;99.90;;;;;;5066850;28;20029;-60
2023/11/03 02:05:15;;;;;;;3.03;1.10;;;11.10;99.90;;;;;;5067552;28;20021;-61
2023/11/03 02:07:41;;;;;;;4.50;0.75;;;11.10;99.90;;;;;;5060832;28;20144;-61
2023/11/03 02:10:07;;;;;;;5.18;0.80;;;11.10;99.90;;;;;;5062732;28;20103;-60
2023/11/03 02:12:33;;;;;;;6.20;0.88;;;11.10;99.90;;;;;;5058852;28;20025;-59
2023/11/03 02:14:59;;;;;;;4.10;1.02;;;11.10;99.90;;;;;;5064569;28;20054;-61
2023/11/03 02:17:26;;;;;;;4.18;0.80;;;11.10;99.90;;;;;;5068743;28;20025;-62
2023/11/03 02:19:52;;;;;;;5.35;0.88;;;11.00;99.90;;;;;;5065678;28;20028;-59
2023/11/03 02:22:17;;;;;;;5.07;1.17;;;11.10;99.90;;;;;;5072108;28;20398;-61
2023/11/03 02:24:43;;;;;;;4.35;0.80;;;11.00;99.90;;;;;;5072210;28;20032;-59
2023/11/03 02:27:08;;;;;;;2.92;0.70;;;11.00;99.90;;;;;;5062406;28;20035;-62
2023/11/03 02:29:34;;;;;;;4.20;0.63;;;11.00;99.90;;;;;;5062515;28;20133;-61
2023/11/03 02:32:00;;;;;;;8.00;1.00;;;11.00;99.90;;;;;;5065212;28;20032;-59
2023/11/03 02:34:25;;;;;;;9.32;0.93;;;11.00;99.90;;;;;;5059190;28;20446;-62
2023/11/03 02:36:52;;;;;;;4.22;0.90;;;11.00;99.90;;;;;;5069005;28;20063;-61
2023/11/03 02:39:18;;;;;;;3.17;0.70;;;11.00;99.90;;;;;;5058285;28;20104;-59
2023/11/03 02:41:43;;;;;;;4.25;0.77;;;10.90;99.90;;;;;;5069856;28;20534;-58
2023/11/03 02:44:09;;;;;;;4.78;0.98;;;10.90;99.90;;;;;;5057274;28;20021;-58
2023/11/03 02:46:34;;;;;;;6.25;1.45;;;10.90;99.90;;;;;;5065683;28;20028;-62
2023/11/03 02:49:00;;;;;;;18.63;1.65;;;11.00;99.90;;;;;;5057355;28;20043;-60
2023/11/03 02:51:25;;;;;;;7.13;1.10;;;10.90;99.90;;;;;;5063094;28;20044;-59
2023/11/03 02:53:51;;;;;;;3.20;1.50;;;11.00;99.90;;;;;;5060061;28;20029;-61
2023/11/03 02:56:24;;;;;;;5.88;0.65;;;10.90;99.90;;;;;;5063723;28;20029;-60
2023/11/03 02:58:50;;;;;;;4.68;0.80;;;10.90;99.90;;;;;;5063788;28;20056;-59
2023/11/03 03:01:15;;;;;;;8.00;0.95;;;10.90;99.90;;;;;;5063470;28;20507;-61
2023/11/03 03:03:41;;;;;;;6.75;0.88;;;10.90;99.90;;;;;;5059254;28;20100;-62
2023/11/03 03:06:07;;;;;;;4.85;0.70;;;10.90;99.90;;;;;;5061962;28;20391;-61
2023/11/03 03:08:32;;;;;;;9.80;0.90;;;10.80;99.90;;;;;;5061260;28;20025;-60
2023/11/03 03:11:00;;;;;;;6.43;1.08;;;10.80;99.90;;;;;;5059626;28;20048;-60
2023/11/03 03:13:26;;;;;;;7.20;1.05;;;10.80;99.90;;;;;;5059737;28;20025;-59
2023/11/03 03:15:51;;;;;;;7.68;1.02;;;10.80;99.90;;;;;;5066219;28;20032;-59
2023/11/03 03:18:17;;;;;;;5.20;0.82;;;10.80;99.90;;;;;;5058639;28;20036;-61
2023/11/03 03:20:42;;;;;;;6.57;1.00;;;10.70;99.90;;;;;;5059349;28;20103;-62
2023/11/03 03:23:08;;;;;;;7.72;0.88;;;10.70;99.90;;;;;;5059598;28;20091;-60
2023/11/03 03:25:34;;;;;;;14.88;3.25;;;10.70;99.90;;;;;;5061445;28;20025;-61
2023/11/03 03:27:59;;;;;;;6.03;0.93;;;10.60;99.90;;;;;;5056571;28;20046;-61
2023/11/03 03:30:25;;;;;;;6.72;1.00;;;10.60;99.90;;;;;;5064481;28;20039;-61
2023/11/03 03:32:51;;;;;;;7.85;0.73;;;10.60;99.90;;;;;;5065049;28;20028;-62
2023/11/03 03:35:16;;;;;;;7.03;1.05;;;10.50;99.90;;;;;;5063272;28;20036;-60
2023/11/03 03:37:42;;;;;;;6.28;1.10;;;10.50;99.90;;;;;;5063664;28;20056;-59
2023/11/03 03:40:11;;;;;;;5.97;1.23;;;10.50;99.90;;;;;;5065397;28;20036;-60
2023/11/03 03:42:36;;;;;;;6.32;1.30;;;10.40;99.90;;;;;;5058774;28;20036;-61
2023/11/03 03:45:03;;;;;;;3.40;0.55;;;10.40;99.90;;;;;;5058370;28;20487;-60
2023/11/03 03:47:29;;;;;;;3.72;0.90;;;10.40;99.90;;;;;;5055755;28;20066;-61
2023/11/03 03:49:55;;;;;;;4.95;1.30;;;10.40;99.90;;;;;;5066544;28;20028;-57
2023/11/03 03:52:21;;;;;;;7.38;1.30;;;10.30;99.90;;;;;;5069203;28;20028;-61
2023/11/03 03:54:46;;;;;;;4.35;0.85;;;10.20;99.90;;;;;;5058215;28;20032;-62
2023/11/03 03:57:12;;;;;;;7.38;2.20;;;10.20;99.90;;;;;;5061576;28;20032;-61
2023/11/03 03:59:37;;;;;;;9.35;1.30;;;10.20;99.90;;;;;;5060908;28;20029;-62
2023/11/03 04:02:03;;;;;;;8.68;1.17;;;10.20;99.90;;;;;;5067086;28;20487;-62
2023/11/03 04:04:29;;;;;;;9.57;1.42;;;10.20;99.90;;;;;;5061866;28;20024;-63
2023/11/03 04:06:54;;;;;;;8.80;1.05;;;10.20;99.90;;;;;;5062361;28;20039;-62
2023/11/03 04:09:19;;;;;;;7.03;1.20;;;10.20;99.90;;;;;;5068140;28;20029;-58
2023/11/03 04:11:45;;;;;;;10.63;1.50;;;10.20;99.90;;;;;;5066150;28;20032;-62
2023/11/03 04:14:10;;;;;;;11.95;1.40;;;10.10;99.90;;;;;;5056256;28;20495;-61
2023/11/03 04:16:36;;;;;;;7.68;1.17;;;10.10;99.90;;;;;;5060447;28;20036;-60
2023/11/03 04:19:03;;;;;;;6.10;1.05;;;10.10;99.90;;;;;;5060557;28;20032;-62
2023/11/03 04:21:29;;;;;;;8.45;1.02;;;10.10;99.90;;;;;;5063880;28;20025;-61
2023/11/03 04:23:55;;;;;;;8.32;1.40;;;10.10;99.90;;;;;;5053580;28;20458;-61
2023/11/03 04:26:22;;;;;;;8.98;1.20;;;10.00;99.90;;;;;;5065059;28;20013;-59
2023/11/03 04:28:47;;;;;;;7.55;1.40;;;9.90;99.90;;;;;;5058754;28;20012;-60
2023/11/03 04:31:13;;;;;;;7.00;1.63;;;9.90;99.90;;;;;;5062498;28;20043;-62
2023/11/03 04:33:38;;;;;;;10.02;1.13;;;9.80;99.90;;;;;;5060063;28;20067;-58
2023/11/03 04:36:04;;;;;;;9.00;1.60;;;9.80;99.90;;;;;;5061841;28;20032;-59
2023/11/03 04:38:30;;;;;;;4.10;1.17;;;9.80;99.90;;;;;;5061812;28;20489;-62
2023/11/03 04:40:55;;;;;;;10.48;1.27;;;9.70;99.90;;;;;;5063798;28;20479;-59
2023/11/03 04:43:21;;;;;;;13.32;1.30;;;9.70;99.90;;;;;;5063153;28;20039;-60
2023/11/03 04:45:47;;;;;;;11.40;1.13;;;9.70;99.90;;;;;;5061675;28;20078;-62
2023/11/03 04:48:12;;;;;;;5.97;1.15;;;9.70;99.90;;;;;;5059413;28;20029;-61
2023/11/03 04:50:38;;;;;;;9.10;1.17;;;9.70;99.90;;;;;;5061853;28;20028;-60
2023/11/03 04:53:04;;;;;;;7.00;0.90;;;9.70;99.90;;;;;;5054710;28;20025;-60
2023/11/03 04:55:29;;;;;;;5.97;1.15;;;9.60;99.90;;;;;;5063013;28;20029;-62
2023/11/03 04:57:56;;;;;;;4.25;0.88;;;9.40;99.90;;;;;;5066229;28;20116;-62
2023/11/03 05:00:22;;;;;;;8.05;0.98;;;9.50;99.90;;;;;;5064272;28;20024;-61
2023/11/03 05:02:49;;;;;;;11.65;1.67;;;9.40;99.90;;;;;;5053320;28;20029;-62
2023/11/03 05:05:15;;;;;;;6.03;2.10;;;9.40;99.90;;;;;;5060645;28;20021;-61
2023/11/03 05:07:41;;;;;;;7.80;1.48;;;9.30;99.90;;;;;;5056823;28;20034;-60
2023/11/03 05:10:08;;;;;;;13.43;1.33;;;9.30;99.90;;;;;;5065750;28;20421;-62
2023/11/03 05:12:33;;;;;;;6.72;1.23;;;9.30;99.90;;;;;;5059933;28;20033;-60
2023/11/03 05:14:59;;;;;;;7.72;1.50;;;9.30;99.90;;;;;;5058478;28;20075;-59
2023/11/03 05:17:25;;;;;;;13.15;1.77;;;9.30;99.90;;;;;;5061184;28;20033;-62
2023/11/03 05:19:51;;;;;;;10.02;1.70;;;9.20;99.90;;;;;;5062908;28;20025;-62
2023/11/03 05:22:17;;;;;;;8.05;1.65;;;9.10;99.90;;;;;;5063129;28;20036;-62
2023/11/03 05:24:44;;;;;;;9.75;1.30;;;9.10;99.90;;;;;;5063349;28;20025;-61
2023/11/03 05:27:09;;;;;;;10.80;1.58;;;9.00;99.90;;;;;;5063864;28;20031;-62
2023/11/03 05:29:39;;;;;;;10.43;1.95;;;9.00;99.90;;;;;;5060059;28;20056;-62
2023/11/03 05:32:06;;;;;;;8.95;1.60;;;8.90;99.90;;;;;;5061478;28;20020;-62
2023/11/03 05:34:31;;;;;;;9.63;1.85;;;8.90;99.90;;;;;;5060462;28;20036;-59
2023/11/03 05:36:57;;;;;;;8.65;1.50;;;8.90;99.90;;;;;;5060529;28;20043;-61
2023/11/03 05:39:22;;;;;;;16.45;1.33;;;8.80;99.90;;;;;;5067355;28;20020;-62
2023/11/03 05:41:48;;;;;;;15.38;2.13;;;8.90;99.90;;;;;;5059092;28;20437;-61
2023/11/03 05:44:13;;;;;;;11.80;1.88;;;8.90;99.90;;;;;;5060973;28;20092;-60
2023/11/03 05:46:39;;;;;;;11.82;1.88;;;9.00;99.90;;;;;;5072540;28;20098;-60
2023/11/03 05:49:05;;;;;;;16.65;2.33;;;9.00;99.90;;;;;;5059450;28;20040;-61
2023/11/03 05:51:31;;;;;;;17.50;1.95;;;9.00;99.90;;;;;;5066193;28;20093;-62
2023/11/03 05:53:57;;;;;;;15.20;1.80;;;9.00;99.90;;;;;;5065384;28;20024;-61
2023/11/03 05:56:22;;;;;;;12.50;1.80;;;9.00;99.90;;;;;;5060863;28;20372;-62
2023/11/03 05:58:48;;;;;;;7.15;1.55;;;9.10;99.90;;;;;;5062476;28;20033;-60
2023/11/03 06:01:13;;;;;;;18.75;1.75;;;9.10;99.90;;;;;;5067229;28;20025;-60
2023/11/03 06:03:39;;;;;;;18.48;2.28;;;9.10;99.90;;;;;;5062012;28;20035;-62
2023/11/03 06:06:09;;;;;;;15.43;1.67;;;9.00;99.90;;;;;;5062906;28;20024;-62
2023/11/03 06:08:34;;;;;;;12.07;1.48;;;8.90;99.90;;;;;;5062029;28;20056;-61
2023/11/03 06:11:00;;;;;;;9.82;1.75;;;8.90;99.90;;;;;;5062728;28;20102;-61
2023/11/03 06:13:25;;;;;;;5.18;1.40;;;8.90;99.90;;;;;;5054701;28;20028;-61
2023/11/03 06:15:51;;;;;;;14.90;2.33;;;8.90;99.90;;;;;;5068889;28;20119;-62
2023/11/03 06:18:16;;;;;;;14.27;1.42;;;8.90;99.90;;;;;;5065681;28;20074;-59
2023/11/03 06:20:42;;;;;;;8.57;1.35;;;8.90;99.90;;;;;;5059881;28;20103;-60
2023/11/03 06:23:07;;;;;;;15.65;2.28;;;8.80;99.90;;;;;;5060226;28;20024;-61
2023/11/03 06:25:33;;;;;;;11.50;2.05;;;8.90;99.90;;;;;;5063896;28;20029;-60
2023/11/03 06:27:58;;;;;;;7.85;1.88;;;8.80;99.90;;;;;;5062932;28;20086;-60
2023/11/03 06:30:24;;;;;;;19.45;2.13;;;8.90;99.90;;;;;;5064955;28;20481;-61
2023/11/03 06:32:52;;;;;;;10.35;2.28;;;8.80;99.90;;;;;;5069917;28;20029;-59
2023/11/03 06:35:18;;;;;;;6.18;1.73;;;8.70;99.90;;;;;;5062818;28;20086;-60
2023/11/03 06:37:43;;;;;;;16.75;2.45;;;8.70;99.90;;;;;;5067375;28;20023;-61
2023/11/03 06:40:10;;;;;;;10.35;1.50;;;8.70;99.90;;;;;;5067256;28;20443;-59
2023/11/03 06:42:40;;;;;;;11.57;1.73;;;8.80;99.90;;;;;;5058174;28;20446;-61
2023/11/03 06:45:09;;;;;;;13.15;1.90;;;8.70;99.90;;;;;;5058986;28;20045;-60
2023/11/03 06:47:35;;;;;;;11.85;1.73;;;8.80;99.90;;;;;;5068729;28;20040;-61
2023/11/03 06:50:01;;;;;;;9.23;1.73;;;8.90;99.90;;;;;;5065081;28;20025;-62
2023/11/03 06:52:27;;;;;;;8.55;1.85;;;8.90;99.90;;;;;;5078205;28;20459;-58
2023/11/03 06:54:52;;;;;;;19.95;1.90;;;8.90;99.90;;;;;;5064088;28;20029;-57
2023/11/03 06:57:18;;;;;;;13.45;1.73;;;8.90;99.90;;;;;;5074087;28;20482;-59
2023/11/03 06:59:43;;;;;;;13.82;1.98;;;8.90;99.90;;;;;;5063985;28;20025;-60
2023/11/03 07:02:10;;;;;;;16.58;1.88;;;8.80;99.90;;;;;;5073369;28;20020;-60
2023/11/03 07:04:36;;;;;;;11.07;2.05;;;8.80;99.90;;;;;;5063857;28;20021;-61
2023/11/03 07:07:02;;;;;;;11.10;1.30;;;8.90;99.90;;;;;;5077034;28;20431;-61
2023/11/03 07:09:30;;;;;;;18.60;1.88;;;8.80;99.90;;;;;;5061936;28;20123;-60
2023/11/03 07:11:56;;;;;;;13.20;2.00;;;8.90;99.90;;;;;;5079886;28;20745;-58
2023/11/03 07:14:23;;;;;;;5.95;1.40;;;8.90;99.90;;;;;;5058318;28;20033;-61
2023/11/03 07:16:51;;;;;;;8.68;1.50;;;8.90;99.90;;;;;;5074791;28;20016;-61
2023/11/03 07:19:17;;;;;;;10.63;2.03;;;8.90;99.90;;;;;;5056172;28;20078;-61
2023/11/03 07:21:50;;;;;;;11.35;1.58;;;8.90;99.90;;;;;;5078197;28;20016;-59
2023/11/03 07:24:17;;;;;;;22.75;2.40;;;8.90;99.90;;;;;;5068161;28;20026;-60
2023/11/03 07:26:43;;;;;;;10.75;2.03;;;8.80;99.90;;;;;;5075517;28;20024;-61
2023/11/03 07:29:09;;;;;;;15.50;1.90;;;8.90;99.90;;;;;;5066546;28;20631;-60
2023/11/03 07:31:38;;;;;;;18.98;1.90;;;8.90;99.90;;;;;;5073098;28;20052;-60
2023/11/03 07:34:05;;;;;;;8.93;2.55;;;9.00;99.90;;;;;;5065152;28;20030;-61
2023/11/03 07:36:30;;;;;;;10.48;1.70;;;9.00;99.90;;;;;;5071695;28;20526;-55
2023/11/03 07:38:58;;;;;;;19.95;2.47;;;9.00;99.90;;;;;;5062427;28;20116;-63
2023/11/03 07:41:23;;;;;;;13.80;1.75;;;9.10;99.90;;;;;;5068337;28;20045;-62
2023/11/03 07:43:49;;;;;;;6.70;2.00;;;9.20;99.90;;;;;;5089553;28;20023;-62
2023/11/03 07:46:14;;;;;;;11.98;1.92;;;9.30;99.90;;;;;;5067581;28;20025;-60
2023/11/03 07:48:40;;;;;;;9.13;1.67;;;9.40;99.90;;;;;;5071474;28;20029;-60
2023/11/03 07:51:06;;;;;;;9.45;1.55;;;9.30;99.90;;;;;;5067473;28;20501;-62
2023/11/03 07:53:31;;;;;;;8.13;1.42;;;9.40;99.90;;;;;;5067028;28;20025;-61
2023/11/03 07:55:58;;;;;;;12.82;2.20;;;9.40;99.90;;;;;;5067054;28;20025;-59
2023/11/03 07:58:24;;;;;;;10.10;1.20;;;9.50;99.90;;;;;;5070962;28;20025;-62
2023/11/03 08:00:49;;;;;;;13.82;1.52;;;9.60;99.90;;;;;;5063885;28;20446;-63
2023/11/03 08:03:16;;;;;;;18.42;1.60;;;9.70;99.90;;;;;;5074282;28;20066;-62
2023/11/03 08:05:41;;;;;;;10.38;1.50;;;9.80;99.90;;;;;;5063456;28;20031;-63
2023/11/03 08:08:08;;;;;;;10.00;1.50;;;9.90;99.90;;;;;;5073085;28;20095;-63
2023/11/03 08:10:33;;;;;;;10.18;1.88;;;10.00;99.90;;;;;;5057628;28;20029;-63
2023/11/03 08:12:59;;;;;;;12.10;1.80;;;10.10;99.90;;;;;;5061677;28;20078;-62
2023/11/03 08:15:25;;;;;;;8.10;1.42;;;10.20;99.90;;;;;;5061322;28;20029;-62
2023/11/03 08:17:50;;;;;;;7.45;1.42;;;10.30;99.90;;;;;;5076623;28;20448;-61
2023/11/03 08:20:16;;;;;;;8.40;1.10;;;10.40;99.90;;;;;;5058474;28;20482;-60
2023/11/03 08:22:42;;;;;;;16.17;1.67;;;10.50;99.90;;;;;;5078847;28;20081;-60
2023/11/03 08:25:08;;;;;;;11.02;1.60;;;10.60;99.90;;;;;;5059150;28;20029;-61
2023/11/03 08:27:34;;;;;;;8.77;1.10;;;10.60;99.90;;;;;;5065759;28;20111;-60
2023/11/03 08:30:04;;;;;;;10.82;1.45;;;10.60;99.90;;;;;;5054958;28;20211;-63
2023/11/03 08:32:30;;;;;;;6.88;1.48;;;10.70;99.90;;;;;;5063014;28;20546;-60
2023/11/03 08:34:56;;;;;;;10.35;1.38;;;10.70;99.90;;;;;;5065546;28;20024;-63
2023/11/03 08:37:22;;;;;;;10.23;1.00;;;10.70;99.90;;;;;;5068727;28;20021;-60
2023/11/03 08:39:48;;;;;;;9.05;1.13;;;10.70;99.90;;;;;;5057097;28;20103;-59
2023/11/03 08:42:14;;;;;;;16.20;1.45;;;10.70;99.90;;;;;;5062252;28;20037;-61
2023/11/03 08:44:40;;;;;;;3.65;0.95;;;10.70;99.90;;;;;;5056156;28;20120;-61
2023/11/03 08:47:07;;;;;;;6.72;1.27;;;10.80;99.90;;;;;;5061595;28;20115;-60
2023/11/03 08:49:34;;;;;;;8.82;1.83;;;10.80;99.90;;;;;;5060571;28;20660;-60
2023/11/03 08:51:59;;;;;;;14.70;1.48;;;10.90;99.90;;;;;;5062545;28;20100;-60
2023/11/03 08:54:25;;;;;;;13.55;1.83;;;10.90;99.90;;;;;;5057635;28;20061;-60
2023/11/03 08:56:51;;;;;;;7.60;1.50;;;11.00;99.90;;;;;;5066486;28;20017;-60
2023/11/03 08:59:16;;;;;;;10.95;1.55;;;11.10;99.90;;;;;;5056983;28;20025;-61
2023/11/03 09:01:45;;;;;;;26.88;2.17;;;11.10;99.90;;;;;;5066078;28;20508;-61
2023/11/03 09:04:11;;;;;;;14.20;2.65;;;11.20;99.90;;;;;;5058847;28;20024;-58
2023/11/03 09:06:37;;;;;;;13.15;1.65;;;11.20;99.90;;;;;;5054087;28;20033;-58
2023/11/03 09:09:03;;;;;;;7.80;1.63;;;11.30;99.90;;;;;;5055408;28;20029;-59
2023/11/03 09:11:30;;;;;;;7.60;2.13;;;11.30;99.90;;;;;;5057294;28;20016;-60
2023/11/03 09:13:59;;;;;;;10.85;2.33;;;11.30;99.90;;;;;;5062001;28;20025;-61
2023/11/03 09:16:24;;;;;;;9.05;1.40;;;11.30;99.90;;;;;;5060401;28;20028;-60
2023/11/03 09:18:54;;;;;;;17.10;2.38;;;11.40;99.90;;;;;;5054675;28;20711;-60
2023/11/03 09:21:20;;;;;;;14.15;1.67;;;11.40;99.90;;;;;;5063614;28;20056;-61
2023/11/03 09:23:47;;;;;;;17.25;3.08;;;11.60;99.90;;;;;;5063009;28;20052;-60
2023/11/03 09:26:13;;;;;;;15.07;1.70;;;11.80;99.90;;;;;;5057912;28;20588;-60
2023/11/03 09:28:39;;;;;;;11.48;1.52;;;11.80;99.90;;;;;;5062725;28;20035;-60
2023/11/03 09:31:05;;;;;;;17.48;2.00;;;11.70;99.90;;;;;;5063350;28;20042;-55
2023/11/03 09:33:31;;;;;;;11.32;1.90;;;11.80;99.90;;;;;;5059382;28;20388;-61
2023/11/03 09:35:57;;;;;;;8.82;1.23;;;11.90;99.90;;;;;;5064835;28;20029;-60
2023/11/03 09:38:22;;;;;;;14.30;1.48;;;11.90;99.90;;;;;;5062467;28;20043;-59
2023/11/03 09:40:48;;;;;;;11.35;2.20;;;12.00;99.90;;;;;;5058284;28;20048;-59
2023/11/03 09:43:14;;;;;;;12.32;1.58;;;12.00;99.90;;;;;;5067725;28;20042;-59
2023/11/03 09:45:41;;;;;;;17.45;1.77;;;11.90;99.90;;;;;;5061314;28;20028;-61
2023/11/03 09:48:12;;;;;;;12.77;1.67;;;12.00;99.90;;;;;;5059574;28;20083;-60
2023/11/03 09:50:38;;;;;;;16.25;1.48;;;12.20;99.90;;;;;;5065048;28;20029;-59
2023/11/03 09:53:15;;;;;;;6.88;1.23;;;12.30;99.90;;;;;;5073782;28;20080;-58
2023/11/03 09:55:41;;;;;;;7.45;1.48;;;12.40;99.90;;;;;;5062354;28;20044;-61
2023/11/03 09:58:07;;;;;;;12.35;2.47;;;12.30;99.90;;;;;;5065016;28;20055;-61
2023/11/03 10:00:33;;;;;;;13.30;1.63;;;12.20;99.90;;;;;;5061477;28;20110;-59
2023/11/03 10:02:59;;;;;;;9.50;1.60;;;12.10;99.90;;;;;;5059537;28;20070;-61
2023/11/03 10:05:26;;;;;;;7.82;1.30;;;12.20;99.90;;;;;;5063545;28;20017;-61
2023/11/03 10:08:01;;;;;;;20.50;2.28;;;12.30;99.90;;;;;;5061145;28;20029;-62
2023/11/03 10:10:34;;;;;;;6.85;1.60;;;12.40;99.90;;;;;;5062827;28;20024;-62
2023/11/03 10:13:00;;;;;;;18.77;3.72;;;12.40;99.90;;;;;;5055620;28;20060;-61
2023/11/03 10:15:26;;;;;;;17.45;1.38;;;12.40;99.90;;;;;;5061369;28;20087;-61
2023/11/03 10:17:53;;;;;;;13.38;2.03;;;12.40;99.90;;;;;;5059881;28;20040;-61
2023/11/03 10:20:20;;;;;;;14.43;1.77;;;12.40;99.90;;;;;;5079633;28;20050;-61
2023/11/03 10:22:47;;;;;;;22.90;2.58;;;12.30;99.90;;;;;;5063515;28;20679;-61
2023/11/03 10:25:14;;;;;;;13.20;1.98;;;12.20;99.90;;;;;;5070678;28;20105;-61
2023/11/03 10:27:39;;;;;;;5.82;1.73;;;12.20;99.90;;;;;;5064735;28;20032;-59
2023/11/03 10:30:06;;;;;;;8.68;1.52;;;12.30;99.90;;;;;;5073399;28;20020;-60
2023/11/03 10:32:33;;;;;;;10.93;1.92;;;12.20;99.90;;;;;;5059258;28;20025;-58
2023/11/03 10:35:08;;;;;;;13.63;1.83;;;12.00;99.90;;;;;;5062365;28;20081;-58
2023/11/03 10:37:37;;;;;;;12.05;1.85;;;12.10;99.90;;;;;;5056281;28;20127;-58
2023/11/03 10:40:13;;;;;;;17.58;2.35;;;12.10;99.90;;;;;;5062243;28;20031;-59
2023/11/03 10:43:00;;;;;;;15.75;1.50;;;12.10;99.90;;;;;;5064046;28;20396;-60
2023/11/03 10:45:31;;;;;;;11.05;2.38;;;12.40;99.90;;;;;;5058869;28;20035;-56
2023/11/03 10:48:14;;;;;;;9.63;1.83;;;12.60;99.90;;;;;;5061469;28;20033;-59
2023/11/03 10:51:00;;;;;;;11.45;1.83;;;12.80;99.90;;;;;;5062056;28;20036;-60
2023/11/03 10:53:57;;;;;;;19.08;3.53;;;12.80;99.90;;;;;;5058182;28;20499;-59
2023/11/03 10:56:24;;;;;;;19.17;1.92;;;12.60;99.90;;;;;;5013257;28;20564;-61
2023/11/03 10:58:51;;;;;;;14.10;1.98;;;12.70;99.90;;;;;;5060697;28;20495;-61
2023/11/03 11:01:21;;;;;;;13.20;1.88;;;12.90;99.90;;;;;;5057983;28;20086;-60
2023/11/03 11:04:12;;;;;;;14.68;1.92;;;12.90;99.90;;;;;;5053761;28;20039;-60
2023/11/03 11:06:43;;;;;;;14.80;2.50;;;13.10;99.90;;;;;;5056347;28;20345;-59
2023/11/03 11:09:15;;;;;;;17.05;2.22;;;13.10;99.90;;;;;;5063650;28;20021;-59
2023/11/03 11:11:44;;;;;;;10.38;1.65;;;12.90;99.90;;;;;;5059509;28;20020;-59
2023/11/03 11:14:22;;;;;;;10.60;1.40;;;12.50;99.90;;;;;;5056627;28;20036;-60
2023/11/03 11:16:53;;;;;;;9.70;1.98;;;12.70;99.90;;;;;;5062178;28;20559;-62
2023/11/03 11:19:31;;;;;;;12.15;1.80;;;12.80;99.90;;;;;;5064254;28;20112;-61
2023/11/03 11:21:59;;;;;;;7.25;1.33;;;13.00;99.90;;;;;;5072218;28;20063;-59
2023/11/03 11:24:28;;;;;;;11.27;1.50;;;12.90;99.90;;;;;;5062583;28;20551;-61
2023/11/03 11:27:29;;;;;;;11.25;1.30;;;13.00;99.90;;;;;;5069902;28;20020;-59
2023/11/03 11:30:05;;;;;;;14.40;1.75;;;12.80;99.90;;;;;;5065457;28;20042;-60
2023/11/03 11:32:30;;;;;;;10.50;1.35;;;12.70;99.90;;;;;;5075085;28;20021;-61
2023/11/03 11:34:57;;;;;;;14.50;1.95;;;13.10;99.90;;;;;;5063533;28;20020;-60
2023/11/03 11:37:27;;;;;;;17.48;1.55;;;13.20;99.90;;;;;;5072298;28;20379;-59
2023/11/03 11:40:03;;;;;;;8.23;1.63;;;13.10;99.90;;;;;;5061783;28;20596;-60
2023/11/03 11:42:37;;;;;;;13.20;1.42;;;12.90;99.90;;;;;;5067398;28;20078;-60
2023/11/03 11:45:07;;;;;;;9.73;1.50;;;12.80;99.90;;;;;;5069707;28;20016;-61
2023/11/03 11:47:35;;;;;;;13.02;2.28;;;12.80;99.90;;;;;;5065444;28;20029;-61
2023/11/03 11:50:04;;;;;;;8.75;1.95;;;12.90;99.90;;;;;;5059594;28;20020;-61
2023/11/03 11:52:30;;;;;;;16.17;1.67;;;13.10;99.90;;;;;;5060007;28;20020;-61
2023/11/03 11:54:57;;;;;;;12.90;1.48;;;12.70;99.90;;;;;;5051820;28;20081;-60
2023/11/03 11:57:25;;;;;;;8.80;2.15;;;12.90;99.90;;;;;;5054576;28;20032;-62
2023/11/03 11:59:52;;;;;;;14.68;1.95;;;13.00;99.90;;;;;;5053930;28;20028;-61
2023/11/03 12:02:19;;;;;;;13.52;2.20;;;13.00;99.90;;;;;;5057346;28;20029;-61
2023/11/03 12:04:51;;;;;;;16.52;1.40;;;13.00;99.90;;;;;;5068407;28;20040;-61
2023/11/03 12:07:26;;;;;;;8.02;1.77;;;13.20;99.90;;;;;;5060579;28;20100;-61
2023/11/03 12:09:53;;;;;;;12.00;2.50;;;13.10;99.90;;;;;;5067777;28;20032;-61
2023/11/03 12:12:23;;;;;;;11.77;2.03;;;12.90;99.90;;;;;;5062078;28;20025;-61
2023/11/03 12:14:48;;;;;;;12.82;1.58;;;13.20;99.90;;;;;;5077498;28;20028;-60
2023/11/03 12:17:15;;;;;;;23.58;2.22;;;13.20;99.90;;;;;;5063525;28;20020;-59
2023/11/03 12:19:46;;;;;;;12.27;1.73;;;13.30;99.90;;;;;;5056677;28;20411;-60
2023/11/03 12:22:23;;;;;;;11.35;1.90;;;13.20;99.90;;;;;;5059264;28;20104;-61
2023/11/03 12:24:49;;;;;;;11.40;1.67;;;13.10;99.90;;;;;;5065370;28;20569;-60
2023/11/03 12:27:16;;;;;;;12.90;2.45;;;13.20;99.90;;;;;;5065551;28;20494;-60
2023/11/03 12:29:43;;;;;;;12.20;1.80;;;13.20;99.90;;;;;;5072957;28;20031;-61
2023/11/03 12:32:09;;;;;;;12.63;1.70;;;13.20;99.90;;;;;;5061205;28;20035;-60
2023/11/03 12:34:35;;;;;;;16.67;2.38;;;13.60;99.90;;;;;;5055304;28;20534;-60
2023/11/03 12:37:04;;;;;;;10.15;2.15;;;13.70;99.90;;;;;;5063133;28;20028;-61
2023/11/03 12:39:30;;;;;;;16.60;1.60;;;13.90;99.90;;;;;;5060347;28;20398;-60
2023/11/03 12:42:02;;;;;;;10.98;1.50;;;14.20;99.90;;;;;;5053217;28;20025;-61
2023/11/03 12:44:31;;;;;;;13.27;2.45;;;14.20;99.90;;;;;;5062057;28;20013;-60